Time;durP1;ratioP1;P1;durP2;ratioP2;P2;SDS_P1;SDS_P2;PMS_P1;PMS_P2;Temp;Humidity;BMP_temperature;BMP_pressure;BME280_temperature;BME280_humidity;BME280_pressure;Samples;Min_cycle;Max_cycle;Signal;HPM_P1;HPM_P2
2022/04/06 00:00:32;;;;;;;1.50;1.50;;;17.20;63.90;;;;;;4988944;28;43871;-74
2022/04/06 00:03:01;;;;;;;1.50;1.50;;;17.30;63.50;;;;;;5007176;28;44017;-74
2022/04/06 00:05:29;;;;;;;1.47;1.47;;;17.30;63.20;;;;;;5006955;28;43934;-75
2022/04/06 00:07:57;;;;;;;1.70;1.70;;;17.30;63.00;;;;;;4987861;28;45570;-73
2022/04/06 00:10:25;;;;;;;1.50;1.50;;;17.20;63.10;;;;;;4987331;28;45146;-75
2022/04/06 00:12:53;;;;;;;1.47;1.47;;;17.10;63.20;;;;;;4987451;28;43417;-75
2022/04/06 00:15:22;;;;;;;1.40;1.40;;;17.10;63.40;;;;;;5006766;28;44023;-74
2022/04/06 00:17:50;;;;;;;1.67;1.67;;;17.00;63.60;;;;;;5006511;28;43978;-75
2022/04/06 00:20:20;;;;;;;1.70;1.70;;;17.00;63.70;;;;;;5006713;28;43952;-74
2022/04/06 00:22:48;;;;;;;1.70;1.70;;;16.90;63.70;;;;;;5006705;28;43943;-75
2022/04/06 00:25:16;;;;;;;1.70;1.70;;;17.00;63.90;;;;;;5006066;28;43768;-74
2022/04/06 00:27:44;;;;;;;1.70;1.70;;;16.90;63.90;;;;;;5006379;28;43985;-74
2022/04/06 00:30:12;;;;;;;1.70;1.70;;;16.90;63.90;;;;;;5006185;28;44162;-75
2022/04/06 00:32:40;;;;;;;1.57;1.57;;;16.90;64.30;;;;;;5006374;28;43413;-74
2022/04/06 00:37:56;;;;;;;1.50;1.50;;;17.10;64.30;;;;;;4988114;28;46612;-73
2022/04/06 00:40:24;;;;;;;1.60;1.60;;;17.30;63.50;;;;;;4988102;28;44589;-74
2022/04/06 00:42:53;;;;;;;1.60;1.60;;;17.50;63.10;;;;;;4985101;28;43957;-74
2022/04/06 00:45:21;;;;;;;1.70;1.70;;;17.60;63.00;;;;;;4987706;28;44009;-73
2022/04/06 00:47:49;;;;;;;1.63;1.63;;;17.50;62.60;;;;;;5006016;28;44005;-75
2022/04/06 00:50:17;;;;;;;1.40;1.40;;;17.50;62.50;;;;;;5005846;28;43946;-74
2022/04/06 00:52:45;;;;;;;1.50;1.50;;;17.40;62.60;;;;;;5006058;28;43988;-74
2022/04/06 00:55:14;;;;;;;1.50;1.50;;;17.30;62.80;;;;;;4988250;28;44025;-74
2022/04/06 00:57:42;;;;;;;1.63;1.63;;;17.20;63.00;;;;;;5005892;28;43963;-74
2022/04/06 01:00:10;;;;;;;1.60;1.60;;;17.20;63.30;;;;;;5005722;28;43324;-74
2022/04/06 01:02:38;;;;;;;1.50;1.50;;;17.10;63.40;;;;;;5006028;28;43937;-74
2022/04/06 01:05:08;;;;;;;1.50;1.50;;;17.00;63.50;;;;;;5006053;28;44021;-74
2022/04/06 01:07:36;;;;;;;1.70;1.70;;;17.00;63.60;;;;;;5005930;28;43925;-74
2022/04/06 01:10:04;;;;;;;1.47;1.47;;;17.00;63.80;;;;;;5006001;28;44049;-73
2022/04/06 01:12:35;;;;;;;1.77;1.77;;;17.00;64.50;;;;;;5006106;28;43900;-74
2022/04/06 01:15:03;;;;;;;1.80;1.80;;;17.00;64.40;;;;;;5006187;28;44009;-74
2022/04/06 01:17:34;;;;;;;1.50;1.50;;;17.20;64.00;;;;;;5006135;28;44847;-74
2022/04/06 01:20:02;;;;;;;1.50;1.50;;;17.30;63.60;;;;;;5009200;28;44106;-74
2022/04/06 01:22:32;;;;;;;1.67;1.67;;;17.30;63.30;;;;;;5009447;28;43994;-74
2022/04/06 01:25:00;;;;;;;1.40;1.40;;;17.30;63.10;;;;;;5008755;28;43962;-73
2022/04/06 01:27:28;;;;;;;1.50;1.50;;;17.20;63.00;;;;;;5008952;28;43966;-73
2022/04/06 01:29:56;;;;;;;1.73;1.73;;;17.20;63.30;;;;;;5008914;28;43983;-75
2022/04/06 01:32:25;;;;;;;1.60;1.60;;;17.10;63.40;;;;;;5009012;28;43293;-73
2022/04/06 01:34:54;;;;;;;1.47;1.47;;;17.00;63.50;;;;;;5009169;28;44055;-75
2022/04/06 01:37:22;;;;;;;1.60;1.60;;;17.00;63.70;;;;;;4990802;28;45371;-74
2022/04/06 01:39:52;;;;;;;2.20;2.07;;;17.00;63.80;;;;;;4990793;28;45027;-74
2022/04/06 01:42:20;;;;;;;1.40;1.40;;;16.90;63.80;;;;;;4990825;28;43954;-73
2022/04/06 01:44:49;;;;;;;1.50;1.50;;;16.90;63.90;;;;;;5009081;28;44061;-74
2022/04/06 01:47:18;;;;;;;1.60;1.60;;;16.90;64.00;;;;;;4990638;28;44211;-73
2022/04/06 01:52:31;;;;;;;1.40;1.40;;;16.90;64.60;;;;;;5008950;28;43982;-76
2022/04/06 01:55:01;;;;;;;1.40;1.40;;;17.10;64.50;;;;;;5008920;28;43903;-73
2022/04/06 01:57:30;;;;;;;1.63;1.63;;;17.20;63.90;;;;;;5008536;28;44125;-73
2022/04/06 01:59:58;;;;;;;1.60;1.60;;;17.40;63.40;;;;;;4990611;28;44317;-72
2022/04/06 02:02:27;;;;;;;1.60;1.60;;;17.60;63.10;;;;;;5008549;28;44004;-76
2022/04/06 02:04:55;;;;;;;1.70;1.70;;;17.60;62.90;;;;;;5008442;28;44040;-74
2022/04/06 02:07:25;;;;;;;1.60;1.60;;;17.50;62.60;;;;;;5008450;28;43957;-74
2022/04/06 02:09:53;;;;;;;1.70;1.70;;;17.40;62.50;;;;;;5008376;28;44080;-74
2022/04/06 02:12:22;;;;;;;1.80;1.80;;;17.40;62.60;;;;;;4987094;28;43400;-75
2022/04/06 02:14:50;;;;;;;1.70;1.70;;;17.30;62.90;;;;;;5007214;28;43766;-74
2022/04/06 02:17:18;;;;;;;1.70;1.70;;;17.20;63.10;;;;;;4990066;28;45410;-76
2022/04/06 02:19:46;;;;;;;1.40;1.40;;;17.10;63.30;;;;;;5008131;28;43371;-74
2022/04/06 02:22:14;;;;;;;1.60;1.60;;;17.10;63.50;;;;;;5007978;28;43968;-74
2022/04/06 02:24:43;;;;;;;1.50;1.50;;;17.10;63.70;;;;;;5008531;28;44009;-75
2022/04/06 02:27:11;;;;;;;1.70;1.70;;;17.00;63.70;;;;;;5002247;28;46798;-75
2022/04/06 02:29:40;;;;;;;1.63;1.63;;;17.00;63.90;;;;;;5006007;28;43924;-73
2022/04/06 02:32:09;;;;;;;1.60;1.60;;;17.00;64.50;;;;;;5008204;28;43957;-74
2022/04/06 02:34:37;;;;;;;1.60;1.60;;;17.10;64.40;;;;;;5008124;28;43944;-73
2022/04/06 02:37:05;;;;;;;1.70;1.70;;;17.30;63.90;;;;;;5008106;28;43990;-74
2022/04/06 02:39:33;;;;;;;1.70;1.70;;;17.30;63.50;;;;;;5008181;28;44009;-74
2022/04/06 02:42:01;;;;;;;1.60;1.60;;;17.30;63.20;;;;;;5008092;28;44042;-74
2022/04/06 02:44:29;;;;;;;1.50;1.50;;;17.30;63.10;;;;;;5008261;28;43977;-74
2022/04/06 02:46:58;;;;;;;1.47;1.47;;;17.20;63.90;;;;;;5007668;28;44022;-74
2022/04/06 02:49:26;;;;;;;1.60;1.60;;;17.10;63.30;;;;;;5007623;28;44024;-73
2022/04/06 02:51:54;;;;;;;1.50;1.50;;;17.10;63.60;;;;;;5007595;28;44019;-74
2022/04/06 02:54:22;;;;;;;1.60;1.60;;;17.00;63.70;;;;;;5008320;28;44029;-74
2022/04/06 02:56:50;;;;;;;1.70;1.70;;;17.00;63.80;;;;;;5007738;28;43830;-74
2022/04/06 02:59:18;;;;;;;1.70;1.70;;;17.00;63.90;;;;;;5007477;28;43764;-74
2022/04/06 03:01:46;;;;;;;1.90;1.90;;;16.90;63.90;;;;;;5007315;28;43807;-74
2022/04/06 03:04:15;;;;;;;1.70;1.70;;;17.00;64.10;;;;;;5007872;28;44034;-74
2022/04/06 03:06:43;;;;;;;1.47;1.47;;;16.90;64.10;;;;;;5007483;28;43922;-74
2022/04/06 03:09:11;;;;;;;1.87;1.77;;;16.90;64.20;;;;;;5007390;28;44098;-75
2022/04/06 03:11:39;;;;;;;1.50;1.50;;;16.90;64.70;;;;;;5007390;28;44022;-75
2022/04/06 03:14:07;;;;;;;1.50;1.50;;;17.00;64.50;;;;;;5007902;28;44015;-75
2022/04/06 03:16:35;;;;;;;1.40;1.40;;;17.20;64.10;;;;;;5007521;28;43806;-73
2022/04/06 03:19:03;;;;;;;1.60;1.60;;;17.40;63.50;;;;;;5006079;28;44840;-74
2022/04/06 03:21:32;;;;;;;1.50;1.50;;;17.60;63.10;;;;;;5007532;28;44020;-73
2022/04/06 03:24:00;;;;;;;1.60;1.60;;;17.60;62.90;;;;;;5007923;28;43476;-75
2022/04/06 03:26:28;;;;;;;1.67;1.67;;;17.60;62.70;;;;;;5006835;28;44945;-74
2022/04/06 03:28:57;;;;;;;1.60;1.60;;;17.50;62.50;;;;;;5007124;28;43902;-74
2022/04/06 03:31:25;;;;;;;1.60;1.60;;;17.40;62.60;;;;;;5006742;28;43377;-75
2022/04/06 03:33:53;;;;;;;1.50;1.50;;;17.30;62.80;;;;;;5007481;28;44085;-77
2022/04/06 03:36:21;;;;;;;1.70;1.70;;;17.20;63.10;;;;;;5007016;28;44031;-75
2022/04/06 03:38:50;;;;;;;1.50;1.50;;;17.20;63.30;;;;;;5007144;28;43886;-76
2022/04/06 03:41:18;;;;;;;1.60;1.60;;;17.10;63.40;;;;;;5000674;28;43409;-75
2022/04/06 03:43:46;;;;;;;1.57;1.57;;;17.10;63.60;;;;;;5000742;28;44038;-74
2022/04/06 03:46:14;;;;;;;1.30;1.30;;;17.00;63.70;;;;;;4989127;28;45809;-74
2022/04/06 03:48:42;;;;;;;1.70;1.70;;;17.00;63.80;;;;;;5006869;28;43890;-74
2022/04/06 03:51:10;;;;;;;1.60;1.60;;;17.00;64.50;;;;;;5000345;28;44128;-74
2022/04/06 03:53:38;;;;;;;1.70;1.70;;;17.10;64.30;;;;;;5000593;28;43776;-73
2022/04/06 03:56:08;;;;;;;1.57;1.57;;;17.30;64.10;;;;;;5000805;28;44036;-74
2022/04/06 03:58:36;;;;;;;1.60;1.60;;;17.30;63.60;;;;;;4985427;28;44664;-75
2022/04/06 04:01:05;;;;;;;1.50;1.50;;;17.30;63.30;;;;;;5000738;28;43929;-74
2022/04/06 04:03:33;;;;;;;1.90;1.80;;;17.30;63.10;;;;;;5008294;28;43736;-76
2022/04/06 04:06:01;;;;;;;1.70;1.70;;;17.20;63.20;;;;;;5007827;28;43968;-77
2022/04/06 04:08:29;;;;;;;1.60;1.60;;;17.20;64.10;;;;;;5006681;28;43911;-77
2022/04/06 04:10:57;;;;;;;1.67;1.67;;;17.10;63.50;;;;;;4988699;28;43747;-76
2022/04/06 04:13:26;;;;;;;1.47;1.47;;;17.00;63.60;;;;;;4988935;28;43449;-75
2022/04/06 04:15:54;;;;;;;1.43;1.43;;;17.00;63.80;;;;;;5006543;28;43640;-76
2022/04/06 04:18:22;;;;;;;1.70;1.70;;;17.00;64.00;;;;;;5006496;28;43396;-76
2022/04/06 04:21:31;;;;;;;1.77;1.77;;;17.00;64.10;;;;;;5007592;28;44005;-85
2022/04/06 04:23:39;;;;;;;1.50;1.50;;;17.00;64.10;;;;;;5006645;28;43409;-75
2022/04/06 04:26:07;;;;;;;1.40;1.40;;;17.00;64.10;;;;;;5006336;28;43931;-75
2022/04/06 04:28:36;;;;;;;1.50;1.50;;;16.90;64.50;;;;;;5006397;28;43989;-75
2022/04/06 04:31:04;;;;;;;1.67;1.67;;;17.00;64.70;;;;;;5006698;28;43870;-76
2022/04/06 04:33:32;;;;;;;1.40;1.40;;;17.20;64.50;;;;;;4989018;28;44002;-76
2022/04/06 04:36:00;;;;;;;1.70;1.70;;;17.40;63.90;;;;;;4988358;28;45313;-76
2022/04/06 04:38:29;;;;;;;1.60;1.60;;;17.50;63.30;;;;;;5006509;28;43430;-75
2022/04/06 04:40:57;;;;;;;1.40;1.40;;;17.70;63.70;;;;;;5006185;28;44060;-75
2022/04/06 04:43:25;;;;;;;1.43;1.43;;;17.70;62.80;;;;;;5006549;28;43862;-76
2022/04/06 04:45:55;;;;;;;1.53;1.53;;;17.60;62.70;;;;;;4988190;28;45635;-75
2022/04/06 04:48:23;;;;;;;1.50;1.50;;;17.50;62.70;;;;;;5006057;28;43831;-75
2022/04/06 04:50:50;;;;;;;1.70;1.70;;;17.40;62.60;;;;;;5006127;28;43966;-78
2022/04/06 04:53:18;;;;;;;1.50;1.50;;;17.30;62.90;;;;;;5008326;28;43843;-75
2022/04/06 04:55:47;;;;;;;1.77;1.67;;;17.30;63.10;;;;;;5009318;28;43771;-75
2022/04/06 04:58:15;;;;;;;1.70;1.70;;;17.20;63.40;;;;;;5009637;28;44034;-76
2022/04/06 05:00:43;;;;;;;1.40;1.40;;;17.10;63.50;;;;;;4991683;28;44012;-76
2022/04/06 05:03:12;;;;;;;1.80;1.80;;;17.10;63.60;;;;;;5009847;28;43983;-76
2022/04/06 05:05:43;;;;;;;1.60;1.60;;;17.10;63.80;;;;;;4991102;28;46216;-76
2022/04/06 05:08:11;;;;;;;1.83;1.73;;;17.00;64.40;;;;;;5009303;28;43832;-76
2022/04/06 05:10:39;;;;;;;1.90;1.90;;;17.10;64.60;;;;;;5009257;28;43362;-76
2022/04/06 05:13:08;;;;;;;1.60;1.60;;;17.20;64.10;;;;;;5009760;28;44064;-76
2022/04/06 05:15:36;;;;;;;1.77;1.77;;;17.40;63.90;;;;;;4990480;28;46365;-76
2022/04/06 05:18:05;;;;;;;1.60;1.60;;;17.40;63.60;;;;;;4987938;28;45648;-75
2022/04/06 05:20:34;;;;;;;1.80;1.80;;;17.30;63.20;;;;;;5007830;28;44014;-76
2022/04/06 05:23:02;;;;;;;1.80;1.80;;;17.30;63.20;;;;;;4988571;28;43532;-75
2022/04/06 05:25:30;;;;;;;1.70;1.70;;;17.20;63.40;;;;;;5007614;28;44052;-75
2022/04/06 05:27:58;;;;;;;1.70;1.70;;;17.10;63.60;;;;;;5008810;28;44012;-77
2022/04/06 05:30:26;;;;;;;1.60;1.60;;;17.00;63.70;;;;;;4991002;28;43789;-75
2022/04/06 05:32:55;;;;;;;1.80;1.70;;;17.00;63.90;;;;;;5009854;28;44146;-74
2022/04/06 05:35:24;;;;;;;1.83;1.83;;;17.00;64.00;;;;;;5008532;28;44933;-74
2022/04/06 05:37:53;;;;;;;1.83;1.83;;;17.00;64.10;;;;;;5008726;28;43430;-77
2022/04/06 05:40:21;;;;;;;1.80;1.80;;;17.00;64.20;;;;;;5008927;28;43441;-77
2022/04/06 05:42:49;;;;;;;1.70;1.70;;;16.90;64.20;;;;;;5009110;28;44035;-75
2022/04/06 05:45:17;;;;;;;1.80;1.80;;;16.90;64.40;;;;;;5008773;28;43860;-75
2022/04/06 05:47:45;;;;;;;1.80;1.80;;;16.90;64.80;;;;;;4987403;28;45276;-74
2022/04/06 05:50:13;;;;;;;2.00;1.90;;;17.10;64.60;;;;;;5007917;28;43938;-75
2022/04/06 05:52:41;;;;;;;2.03;1.93;;;17.30;64.00;;;;;;5009030;28;44095;-75
2022/04/06 05:55:11;;;;;;;1.93;1.93;;;17.50;63.50;;;;;;5008674;28;43964;-76
2022/04/06 05:57:39;;;;;;;1.67;1.67;;;17.60;63.10;;;;;;5008641;28;43893;-76
2022/04/06 06:00:08;;;;;;;2.07;2.07;;;17.70;63.00;;;;;;5008507;28;43886;-77
2022/04/06 06:02:39;;;;;;;1.77;1.77;;;17.60;62.80;;;;;;5009047;28;44009;-75
2022/04/06 06:05:07;;;;;;;1.80;1.80;;;17.50;62.60;;;;;;4989097;28;47569;-75
2022/04/06 06:07:35;;;;;;;2.00;1.77;;;17.40;62.70;;;;;;4987158;28;44552;-75
2022/04/06 06:10:03;;;;;;;1.93;1.93;;;17.30;62.90;;;;;;4981113;28;44136;-75
2022/04/06 06:12:33;;;;;;;2.53;1.87;;;17.30;63.20;;;;;;4981270;28;43759;-77
2022/04/06 06:15:01;;;;;;;2.10;2.00;;;17.20;63.40;;;;;;5002331;28;44966;-75
2022/04/06 06:17:29;;;;;;;1.97;1.90;;;17.20;63.50;;;;;;5001784;28;43413;-75
2022/04/06 06:19:57;;;;;;;1.80;1.80;;;17.10;63.70;;;;;;5002039;28;43946;-76
2022/04/06 06:22:25;;;;;;;2.17;2.07;;;17.10;63.70;;;;;;4997908;28;44070;-75
2022/04/06 06:24:53;;;;;;;1.90;1.90;;;17.00;64.00;;;;;;5001417;28;44084;-77
2022/04/06 06:27:23;;;;;;;1.77;1.77;;;17.10;64.50;;;;;;4983760;28;44371;-76
2022/04/06 06:29:52;;;;;;;1.67;1.67;;;17.20;64.30;;;;;;5002214;28;44021;-76
2022/04/06 06:32:20;;;;;;;1.83;1.83;;;17.30;63.90;;;;;;5008796;28;44021;-77
2022/04/06 06:34:48;;;;;;;1.70;1.70;;;17.40;63.70;;;;;;5007765;28;44092;-75
2022/04/06 06:37:16;;;;;;;1.73;1.70;;;17.40;63.30;;;;;;4987133;28;44354;-74
2022/04/06 06:39:44;;;;;;;2.00;2.00;;;17.30;63.20;;;;;;5008201;28;43374;-75
2022/04/06 06:42:12;;;;;;;1.90;1.80;;;17.20;63.20;;;;;;4990412;28;43893;-75
2022/04/06 06:44:40;;;;;;;1.70;1.67;;;17.20;63.50;;;;;;4989790;28;45708;-76
2022/04/06 06:47:09;;;;;;;1.70;1.70;;;17.10;63.60;;;;;;5007613;28;44078;-75
2022/04/06 06:49:40;;;;;;;2.00;1.90;;;17.10;63.80;;;;;;5007881;28;43868;-77
2022/04/06 06:52:08;;;;;;;2.37;2.27;;;17.00;63.80;;;;;;5007982;28;44157;-75
2022/04/06 06:54:37;;;;;;;1.60;1.60;;;17.00;63.90;;;;;;4989403;28;46835;-75
2022/04/06 06:57:05;;;;;;;1.67;1.67;;;17.00;64.00;;;;;;5007757;28;43719;-77
2022/04/06 06:59:33;;;;;;;1.77;1.77;;;17.00;64.10;;;;;;4987806;28;43933;-77
2022/04/06 07:02:01;;;;;;;1.60;1.60;;;17.00;64.10;;;;;;5008314;28;43966;-77
2022/04/06 07:04:30;;;;;;;1.77;1.77;;;17.00;64.70;;;;;;5007454;28;45100;-75
2022/04/06 07:06:58;;;;;;;1.77;1.77;;;17.00;64.60;;;;;;5007441;28;43521;-76
2022/04/06 07:09:26;;;;;;;1.83;1.83;;;17.20;64.30;;;;;;5007563;28;43875;-76
2022/04/06 07:11:54;;;;;;;2.10;2.00;;;17.40;63.80;;;;;;5008133;28;43972;-77
2022/04/06 07:14:22;;;;;;;1.87;1.80;;;17.60;63.20;;;;;;5007295;28;44044;-76
2022/04/06 07:16:50;;;;;;;1.80;1.80;;;17.70;63.10;;;;;;5006963;28;43954;-75
2022/04/06 07:19:18;;;;;;;2.00;1.90;;;17.70;62.80;;;;;;5007394;28;43369;-76
2022/04/06 07:21:48;;;;;;;1.33;1.33;;;17.60;62.70;;;;;;4989792;28;43895;-75
2022/04/06 07:24:15;;;;;;;1.90;1.87;;;17.50;62.60;;;;;;5006892;28;43943;-76
2022/04/06 07:26:43;;;;;;;1.57;1.57;;;17.40;62.80;;;;;;5006952;28;43821;-78
2022/04/06 07:29:14;;;;;;;1.80;1.80;;;17.30;63.00;;;;;;5007505;28;43886;-75
2022/04/06 07:31:43;;;;;;;1.67;1.67;;;17.20;63.20;;;;;;4989465;28;43976;-76
2022/04/06 07:34:11;;;;;;;1.50;1.50;;;17.20;63.50;;;;;;5006693;28;43814;-75
2022/04/06 07:36:39;;;;;;;1.77;1.77;;;17.10;63.60;;;;;;5006875;28;43483;-76
2022/04/06 07:39:08;;;;;;;1.50;1.50;;;17.10;63.70;;;;;;5007031;28;44048;-76
2022/04/06 07:41:36;;;;;;;1.67;1.67;;;17.00;63.80;;;;;;4989586;28;44072;-76
2022/04/06 07:44:05;;;;;;;1.60;1.60;;;17.10;64.60;;;;;;4989142;28;44427;-76
2022/04/06 07:46:35;;;;;;;1.63;1.63;;;17.10;64.40;;;;;;5007026;28;43385;-76
2022/04/06 07:49:02;;;;;;;1.87;1.87;;;17.30;64.00;;;;;;5006990;28;43926;-76
2022/04/06 07:51:31;;;;;;;1.60;1.60;;;17.40;63.70;;;;;;5007611;28;44004;-76
2022/04/06 07:53:59;;;;;;;1.77;1.67;;;17.40;64.20;;;;;;5006785;28;44073;-76
2022/04/06 07:56:29;;;;;;;1.60;1.60;;;17.40;63.20;;;;;;5006734;28;43910;-76
2022/04/06 07:58:57;;;;;;;1.57;1.57;;;17.30;63.30;;;;;;5006851;28;43456;-76
2022/04/06 08:01:29;;;;;;;1.70;1.70;;;17.20;63.40;;;;;;4989444;28;44014;-76
2022/04/06 08:03:57;;;;;;;1.57;1.57;;;17.20;63.60;;;;;;4988532;28;45320;-75
2022/04/06 08:06:25;;;;;;;1.73;1.73;;;17.10;63.70;;;;;;5006690;28;43442;-77
2022/04/06 08:08:53;;;;;;;1.80;1.80;;;17.10;63.90;;;;;;4988648;28;44125;-75
2022/04/06 08:11:21;;;;;;;1.67;1.67;;;17.00;63.90;;;;;;4989020;28;43509;-75
2022/04/06 08:13:51;;;;;;;1.63;1.63;;;17.00;64.10;;;;;;4988329;28;45578;-76
2022/04/06 08:16:19;;;;;;;1.53;1.53;;;17.00;64.10;;;;;;4988387;28;44651;-77
2022/04/06 08:18:47;;;;;;;1.60;1.60;;;17.00;64.10;;;;;;4988464;28;43918;-77
2022/04/06 08:21:15;;;;;;;1.57;1.57;;;17.00;64.40;;;;;;4988897;28;43959;-75
2022/04/06 08:23:43;;;;;;;1.60;1.60;;;17.00;64.80;;;;;;5006289;28;44995;-75
2022/04/06 08:26:11;;;;;;;1.57;1.57;;;17.20;64.60;;;;;;4987761;28;43954;-75
2022/04/06 08:28:40;;;;;;;1.60;1.60;;;17.40;64.00;;;;;;4987641;28;43374;-75
2022/04/06 08:31:09;;;;;;;1.63;1.63;;;17.50;63.50;;;;;;5006759;28;43311;-77
2022/04/06 08:33:38;;;;;;;1.70;1.70;;;17.70;63.10;;;;;;4987994;28;46696;-76
2022/04/06 08:36:06;;;;;;;1.70;1.60;;;17.70;62.90;;;;;;5005940;28;43946;-77
2022/04/06 08:38:34;;;;;;;1.60;1.60;;;17.70;62.80;;;;;;5006579;28;43855;-76
2022/04/06 08:41:02;;;;;;;1.50;1.50;;;17.60;62.60;;;;;;5006906;28;43410;-75
2022/04/06 08:43:30;;;;;;;1.50;1.50;;;17.50;62.60;;;;;;5006499;28;45405;-75
2022/04/06 08:45:58;;;;;;;1.40;1.40;;;17.40;62.90;;;;;;5006118;28;43898;-75
2022/04/06 08:48:29;;;;;;;1.43;1.43;;;17.30;63.20;;;;;;4988033;28;43489;-75
2022/04/06 08:50:57;;;;;;;1.37;1.37;;;17.20;63.30;;;;;;5006479;28;43813;-76
2022/04/06 08:53:25;;;;;;;1.40;1.40;;;17.20;63.50;;;;;;5006005;28;44018;-76
2022/04/06 08:55:54;;;;;;;1.60;1.60;;;17.10;63.60;;;;;;5005956;28;43931;-77
2022/04/06 08:58:22;;;;;;;1.70;1.70;;;17.10;63.70;;;;;;5005928;28;43789;-77
2022/04/06 09:00:50;;;;;;;1.70;1.70;;;17.10;64.20;;;;;;5006195;28;43957;-77
2022/04/06 09:03:18;;;;;;;1.63;1.53;;;17.10;64.60;;;;;;4987910;28;44327;-77
2022/04/06 09:05:58;;;;;;;1.67;1.67;;;17.30;64.30;;;;;;4988014;28;44742;-75
2022/04/06 09:08:34;;;;;;;1.67;1.57;;;17.40;63.90;;;;;;4987726;28;43945;-74
2022/04/06 09:11:07;;;;;;;1.47;1.47;;;17.40;63.50;;;;;;5006606;28;43954;-76
2022/04/06 09:13:35;;;;;;;1.80;1.80;;;17.40;63.30;;;;;;5005796;28;44743;-76
2022/04/06 09:16:04;;;;;;;1.50;1.50;;;17.30;63.10;;;;;;4987927;28;45744;-76
2022/04/06 09:18:33;;;;;;;1.43;1.43;;;17.30;63.40;;;;;;5006007;28;44033;-76
2022/04/06 09:21:03;;;;;;;1.40;1.40;;;17.20;63.50;;;;;;4988307;28;44078;-76
2022/04/06 09:23:31;;;;;;;1.77;1.77;;;17.10;63.60;;;;;;4987911;28;45986;-76
2022/04/06 09:26:03;;;;;;;1.80;1.80;;;17.10;63.70;;;;;;5005196;28;43988;-76
2022/04/06 09:28:38;;;;;;;1.30;1.30;;;17.10;63.90;;;;;;4988017;28;43519;-76
2022/04/06 09:31:06;;;;;;;1.50;1.50;;;17.00;63.90;;;;;;4987939;28;43993;-76
2022/04/06 09:33:39;;;;;;;1.57;1.57;;;17.00;64.00;;;;;;5005838;28;43933;-76
2022/04/06 09:36:19;;;;;;;1.50;1.50;;;17.00;64.00;;;;;;4987381;28;44538;-75
2022/04/06 09:38:48;;;;;;;2.87;1.70;;;17.00;64.10;;;;;;5001978;28;43846;-74
2022/04/06 09:41:17;;;;;;;2.17;1.57;;;17.00;64.30;;;;;;5004020;28;43500;-76
2022/04/06 09:43:45;;;;;;;4.03;1.90;;;17.00;64.20;;;;;;5002360;28;43922;-77
2022/04/06 09:49:08;;;;;;;1.70;1.60;;;17.50;63.60;;;;;;5008721;28;44106;-75
2022/04/06 09:51:37;;;;;;;1.40;1.40;;;17.70;63.00;;;;;;5009134;28;44020;-77
2022/04/06 09:54:07;;;;;;;1.63;1.57;;;17.80;62.50;;;;;;5008597;28;43718;-76
2022/04/06 09:56:35;;;;;;;1.57;1.57;;;17.80;63.00;;;;;;4990375;28;45023;-76
2022/04/06 09:59:08;;;;;;;1.63;1.63;;;17.80;62.50;;;;;;5008692;28;44042;-78
2022/04/06 10:01:36;;;;;;;1.43;1.43;;;17.70;62.40;;;;;;5008806;28;43639;-76
2022/04/06 10:04:06;;;;;;;1.40;1.40;;;17.50;62.30;;;;;;5008617;28;45057;-75
2022/04/06 10:06:38;;;;;;;1.60;1.60;;;17.40;62.60;;;;;;5008643;28;43349;-76
2022/04/06 10:09:07;;;;;;;1.50;1.40;;;17.40;63.00;;;;;;4990480;28;43969;-75
2022/04/06 10:11:35;;;;;;;1.40;1.40;;;17.30;63.20;;;;;;4990830;28;43985;-75
2022/04/06 10:14:04;;;;;;;1.60;1.50;;;17.20;63.40;;;;;;5008633;28;43917;-75
2022/04/06 10:16:35;;;;;;;1.50;1.50;;;17.20;63.50;;;;;;4990243;28;44631;-75
2022/04/06 10:19:03;;;;;;;1.60;1.60;;;17.10;63.70;;;;;;4990765;28;44006;-75
2022/04/06 10:21:35;;;;;;;1.97;1.87;;;17.10;64.50;;;;;;4981141;28;44055;-76
2022/04/06 10:24:18;;;;;;;1.50;1.50;;;17.30;64.30;;;;;;4984558;28;45691;-75
2022/04/06 10:26:52;;;;;;;1.63;1.53;;;17.40;64.60;;;;;;5001621;28;44761;-76
2022/04/06 10:29:20;;;;;;;1.47;1.47;;;17.40;63.60;;;;;;5006784;28;44001;-75
2022/04/06 10:31:48;;;;;;;1.70;1.27;;;17.40;63.30;;;;;;5008592;28;43448;-75
2022/04/06 10:34:24;;;;;;;1.37;1.37;;;17.40;63.10;;;;;;5006348;28;45813;-75
2022/04/06 10:37:05;;;;;;;1.43;1.43;;;17.30;63.20;;;;;;5007757;28;44159;-76
2022/04/06 10:39:43;;;;;;;1.60;1.60;;;17.20;63.40;;;;;;5006947;28;43995;-75
2022/04/06 10:42:19;;;;;;;1.70;1.70;;;17.20;63.60;;;;;;5007641;28;43951;-74
2022/04/06 10:44:48;;;;;;;1.70;1.60;;;17.10;63.70;;;;;;5009619;28;45012;-83
2022/04/06 10:47:16;;;;;;;1.77;1.67;;;17.10;63.70;;;;;;5007659;28;44168;-78
2022/04/06 10:49:44;;;;;;;1.73;1.50;;;17.10;63.80;;;;;;5009385;28;43768;-76
2022/04/06 10:52:26;;;;;;;1.73;1.63;;;17.00;63.80;;;;;;5006856;28;44032;-78
2022/04/06 10:54:57;;;;;;;2.60;1.40;;;17.00;63.90;;;;;;5008484;28;44830;-78
2022/04/06 10:57:25;;;;;;;1.50;1.50;;;17.00;64.30;;;;;;5006405;28;44584;-74
2022/04/06 11:00:12;;;;;;;3.77;1.90;;;17.10;64.70;;;;;;5008716;28;43394;-77
2022/04/06 11:02:50;;;;;;;1.70;1.60;;;17.20;64.30;;;;;;5007253;28;43953;-75
2022/04/06 11:05:49;;;;;;;1.73;1.70;;;17.40;63.70;;;;;;5007931;28;44000;-75
2022/04/06 11:11:45;;;;;;;1.60;1.50;;;17.70;62.90;;;;;;5006465;28;44184;-76
2022/04/06 11:14:14;;;;;;;1.87;1.80;;;17.70;62.80;;;;;;5001267;28;43420;-78
2022/04/06 11:16:43;;;;;;;1.40;1.40;;;17.60;62.70;;;;;;5007540;28;44023;-76
2022/04/06 11:19:12;;;;;;;1.50;1.50;;;17.50;62.60;;;;;;5007567;28;43406;-78
2022/04/06 11:21:50;;;;;;;1.30;1.30;;;17.40;62.80;;;;;;5007624;28;43830;-77
2022/04/06 11:24:19;;;;;;;1.47;1.47;;;17.40;63.10;;;;;;5006556;28;43955;-75
2022/04/06 11:26:48;;;;;;;1.57;1.47;;;17.30;63.30;;;;;;5006960;28;43899;-75
2022/04/06 11:29:16;;;;;;;1.97;1.77;;;17.20;63.50;;;;;;5007962;28;43413;-76
2022/04/06 11:31:57;;;;;;;1.90;1.80;;;17.20;63.60;;;;;;4990198;28;43387;-77
2022/04/06 11:34:33;;;;;;;2.00;1.90;;;17.20;63.80;;;;;;5008717;28;43352;-75
2022/04/06 11:37:01;;;;;;;3.70;2.07;;;17.10;64.30;;;;;;4990082;28;46874;-74
2022/04/06 11:39:30;;;;;;;1.80;1.70;;;17.20;64.50;;;;;;5008926;28;43790;-75
2022/04/06 11:42:00;;;;;;;10.63;5.83;;;17.40;64.10;;;;;;5008620;28;44130;-75
2022/04/06 11:44:29;;;;;;;14.30;8.10;;;17.50;63.80;;;;;;4990566;28;43784;-76
2022/04/06 11:46:57;;;;;;;10.90;6.47;;;17.50;63.50;;;;;;4989175;28;45639;-75
2022/04/06 11:49:26;;;;;;;8.10;6.70;;;17.40;63.20;;;;;;5007130;28;44061;-74
2022/04/06 11:51:54;;;;;;;12.03;7.93;;;17.40;63.30;;;;;;4979693;28;43942;-76
2022/04/06 11:54:23;;;;;;;13.57;7.90;;;17.30;63.40;;;;;;4983512;28;43587;-78
2022/04/06 11:56:51;;;;;;;7.57;5.70;;;17.30;63.70;;;;;;5000825;28;43938;-77
2022/04/06 11:59:22;;;;;;;5.37;4.40;;;17.30;63.80;;;;;;4979637;28;44665;-77
2022/04/06 12:01:53;;;;;;;4.47;4.07;;;17.20;63.80;;;;;;5005983;28;44010;-77
2022/04/06 12:04:22;;;;;;;4.43;4.03;;;17.20;64.10;;;;;;5006858;28;43905;-77
2022/04/06 12:06:51;;;;;;;3.83;3.40;;;17.20;64.20;;;;;;5006716;28;43942;-77
2022/04/06 12:09:19;;;;;;;3.80;3.50;;;17.20;64.30;;;;;;5006683;28;43961;-77
2022/04/06 12:11:50;;;;;;;3.57;3.27;;;17.20;64.30;;;;;;5006760;28;44100;-77
2022/04/06 12:14:18;;;;;;;3.07;2.87;;;17.10;64.30;;;;;;4989163;28;43457;-77
2022/04/06 12:16:49;;;;;;;2.90;2.70;;;17.10;64.80;;;;;;5005862;28;44380;-77
2022/04/06 12:19:18;;;;;;;3.30;3.00;;;17.30;64.80;;;;;;5006532;28;43957;-76
2022/04/06 12:21:48;;;;;;;3.13;2.93;;;17.50;64.30;;;;;;4987646;28;43863;-77
2022/04/06 12:24:17;;;;;;;2.97;2.77;;;17.70;63.80;;;;;;5006857;28;43944;-77
2022/04/06 12:26:51;;;;;;;3.00;2.80;;;17.80;63.30;;;;;;4987871;28;45417;-77
2022/04/06 12:29:22;;;;;;;2.80;2.60;;;17.90;63.10;;;;;;5006171;28;43886;-76
2022/04/06 12:31:53;;;;;;;3.20;2.80;;;17.80;62.90;;;;;;5006452;28;44071;-77
2022/04/06 12:34:31;;;;;;;2.63;2.47;;;17.70;62.90;;;;;;5006708;28;43851;-76
2022/04/06 12:36:59;;;;;;;3.00;2.80;;;17.60;63.00;;;;;;5006058;28;43949;-77
2022/04/06 12:39:27;;;;;;;3.50;3.20;;;17.50;63.30;;;;;;5006286;28;44010;-76
2022/04/06 12:41:59;;;;;;;3.13;2.93;;;17.40;63.50;;;;;;5006345;28;43778;-76
2022/04/06 12:44:27;;;;;;;3.00;2.80;;;17.40;63.80;;;;;;5006485;28;43938;-76
2022/04/06 12:46:57;;;;;;;3.13;3.03;;;17.30;63.80;;;;;;5006289;28;44817;-78
2022/04/06 12:49:27;;;;;;;3.53;3.23;;;17.30;64.10;;;;;;4999846;28;43416;-76
2022/04/06 12:52:09;;;;;;;3.20;3.00;;;17.20;64.10;;;;;;4995418;28;43978;-76
2022/04/06 12:54:38;;;;;;;3.30;3.00;;;17.20;64.60;;;;;;5002171;28;43969;-76
2022/04/06 12:57:13;;;;;;;3.50;3.20;;;17.30;64.90;;;;;;4987836;28;46695;-76
2022/04/06 12:59:43;;;;;;;3.10;2.93;;;17.40;64.60;;;;;;4987998;28;45755;-76
2022/04/06 13:02:23;;;;;;;3.60;3.33;;;17.50;64.20;;;;;;5005883;28;43986;-76
2022/04/06 13:04:52;;;;;;;3.67;3.37;;;17.50;63.90;;;;;;5006298;28;43823;-76
2022/04/06 13:07:20;;;;;;;4.47;3.10;;;17.50;63.80;;;;;;4987907;28;45778;-76